Time;durP1;ratioP1;P1;durP2;ratioP2;P2;SDS_P1;SDS_P2;PMS_P1;PMS_P2;Temp;Humidity;BMP_temperature;BMP_pressure;BME280_temperature;BME280_humidity;BME280_pressure;Samples;Min_cycle;Max_cycle;Signal;HPM_P1;HPM_P2
2023/01/30 00:01:06;;;;;;;6.43;2.37;;;-0.50;97.30;;;;;;5072321;28;20175;-87
2023/01/30 00:03:33;;;;;;;2.53;2.33;;;-0.50;97.30;;;;;;5072845;28;20512;-87
2023/01/30 00:05:58;;;;;;;2.47;2.27;;;-0.60;97.30;;;;;;5074363;28;20474;-88
2023/01/30 00:08:24;;;;;;;5.43;2.70;;;-0.60;97.30;;;;;;5072561;28;20850;-89
2023/01/30 00:10:49;;;;;;;2.67;2.20;;;-0.60;97.30;;;;;;5072418;28;20179;-89
2023/01/30 00:13:15;;;;;;;6.87;6.47;;;-0.60;97.30;;;;;;5072946;28;20175;-88
2023/01/30 00:15:41;;;;;;;3.00;2.40;;;-0.60;97.30;;;;;;5063966;28;20562;-88
2023/01/30 00:18:07;;;;;;;6.33;3.20;;;-0.70;97.30;;;;;;5055873;28;20646;-88
2023/01/30 00:20:33;;;;;;;2.30;2.10;;;-0.70;97.30;;;;;;5058926;28;20432;-87
2023/01/30 00:22:58;;;;;;;2.70;2.50;;;-0.70;97.30;;;;;;5058138;28;20790;-87
2023/01/30 00:25:25;;;;;;;4.70;4.40;;;-0.80;97.30;;;;;;5056699;28;20416;-86
2023/01/30 00:27:50;;;;;;;2.50;1.87;;;-0.80;97.30;;;;;;5074719;28;20175;-88
2023/01/30 00:30:16;;;;;;;4.73;3.63;;;-0.80;97.30;;;;;;5073561;28;20540;-86
2023/01/30 00:32:41;;;;;;;11.67;2.50;;;-0.80;97.30;;;;;;5056420;28;20179;-86
2023/01/30 00:35:07;;;;;;;2.23;2.07;;;-0.70;97.30;;;;;;5056750;28;20546;-88
2023/01/30 00:37:32;;;;;;;2.33;2.13;;;-0.70;97.30;;;;;;5057131;28;20175;-88
2023/01/30 00:39:58;;;;;;;1.50;1.40;;;-0.70;97.30;;;;;;5054828;28;20238;-87
2023/01/30 00:47:55;;;;;;;4.50;3.73;;;-0.60;97.30;;;;;;5073070;28;21018;-89
2023/01/30 00:50:20;;;;;;;2.90;2.50;;;-0.60;97.30;;;;;;5055003;28;20445;-89
2023/01/30 00:52:47;;;;;;;2.63;2.47;;;-0.60;97.30;;;;;;5054275;28;20218;-89
2023/01/30 00:55:14;;;;;;;5.60;3.40;;;-0.70;97.30;;;;;;5055863;28;20233;-88
2023/01/30 00:57:39;;;;;;;1.20;1.10;;;-0.70;97.30;;;;;;5074163;28;20409;-88
2023/01/30 01:00:07;;;;;;;6.00;4.53;;;-0.70;97.30;;;;;;5074371;28;20805;-89
2023/01/30 01:02:34;;;;;;;4.40;2.17;;;-0.70;97.30;;;;;;5055764;28;20203;-88
2023/01/30 01:04:59;;;;;;;2.87;2.67;;;-0.70;97.30;;;;;;5056559;28;20406;-86
2023/01/30 01:07:25;;;;;;;3.83;2.47;;;-0.70;97.30;;;;;;5056209;28;20435;-88
2023/01/30 01:09:50;;;;;;;12.30;3.87;;;-0.70;97.30;;;;;;5055768;28;20228;-88
2023/01/30 01:12:16;;;;;;;3.23;3.07;;;-0.70;97.30;;;;;;5056014;28;20178;-88
2023/01/30 01:14:41;;;;;;;2.00;1.83;;;-0.70;97.30;;;;;;5055767;28;20308;-88
2023/01/30 01:17:07;;;;;;;2.90;2.70;;;-0.80;97.30;;;;;;5055581;28;20179;-89
2023/01/30 01:19:33;;;;;;;6.40;3.60;;;-0.70;97.30;;;;;;5055170;28;20231;-88
2023/01/30 01:21:58;;;;;;;3.40;2.10;;;-0.70;97.30;;;;;;5055932;28;20179;-88
2023/01/30 01:24:24;;;;;;;1.77;1.67;;;-0.70;97.30;;;;;;5055201;28;20599;-88
2023/01/30 01:26:49;;;;;;;2.30;2.10;;;-0.70;97.30;;;;;;5055308;28;20194;-89
2023/01/30 01:29:16;;;;;;;1.80;1.70;;;-0.60;97.30;;;;;;5056198;28;20191;-87
2023/01/30 01:31:42;;;;;;;7.80;2.60;;;-0.60;97.30;;;;;;5061504;28;20183;-87
2023/01/30 01:34:09;;;;;;;3.70;1.93;;;-0.60;97.30;;;;;;5079024;28;20922;-87
2023/01/30 01:36:34;;;;;;;1.27;1.17;;;-0.60;97.30;;;;;;5073604;28;20437;-88
2023/01/30 01:39:00;;;;;;;1.30;1.20;;;-0.50;97.30;;;;;;5055038;28;20486;-88
2023/01/30 01:41:25;;;;;;;2.87;2.67;;;-0.50;97.30;;;;;;5055106;28;20186;-89
2023/01/30 01:44:01;;;;;;;1.67;1.57;;;-0.50;97.30;;;;;;5073853;28;20657;-87
2023/01/30 01:46:33;;;;;;;3.00;2.00;;;-0.50;97.30;;;;;;5055102;28;20174;-88
2023/01/30 01:49:02;;;;;;;2.70;1.90;;;-0.40;97.30;;;;;;5072954;28;20449;-88
2023/01/30 01:51:33;;;;;;;5.67;2.73;;;-0.40;97.30;;;;;;5055338;28;20424;-90
2023/01/30 01:54:08;;;;;;;8.33;5.20;;;-0.40;97.30;;;;;;5073263;28;20401;-87
2023/01/30 01:56:37;;;;;;;4.00;1.87;;;-0.30;97.30;;;;;;5072716;28;20441;-87
2023/01/30 01:59:23;;;;;;;1.67;1.57;;;-0.20;97.30;;;;;;5055428;28;20468;-88
2023/01/30 02:01:49;;;;;;;2.20;2.00;;;-0.20;97.30;;;;;;5073237;28;20422;-89
2023/01/30 02:05:00;;;;;;;1.03;1.00;;;-0.20;97.30;;;;;;5055439;28;20816;-88
2023/01/30 02:07:01;;;;;;;1.97;1.87;;;-0.20;97.30;;;;;;5073542;28;20446;-90
2023/01/30 02:09:26;;;;;;;4.30;3.13;;;-0.10;97.30;;;;;;5055222;28;20782;-88
2023/01/30 02:11:59;;;;;;;14.13;1.50;;;-0.10;97.30;;;;;;5055520;28;20269;-88
2023/01/30 02:14:25;;;;;;;2.67;1.97;;;-0.10;97.30;;;;;;5055749;28;20265;-87
2023/01/30 02:16:50;;;;;;;2.17;2.00;;;-0.10;97.30;;;;;;5073078;28;20417;-88
2023/01/30 02:19:39;;;;;;;2.90;2.70;;;-0.10;97.30;;;;;;5054937;28;20230;-90
2023/01/30 02:22:35;;;;;;;1.50;1.40;;;0.00;97.30;;;;;;5055858;28;20660;-88
2023/01/30 02:25:17;;;;;;;3.13;1.53;;;0.00;97.30;;;;;;5055827;28;20500;-88
2023/01/30 02:28:01;;;;;;;2.80;2.60;;;0.00;97.30;;;;;;5055440;28;20405;-88
2023/01/30 02:31:03;;;;;;;2.60;1.77;;;0.00;97.30;;;;;;5055799;28;20413;-87
2023/01/30 02:33:49;;;;;;;1.90;1.77;;;0.10;97.30;;;;;;5054964;28;20907;-89
2023/01/30 02:36:37;;;;;;;3.67;3.47;;;0.10;97.30;;;;;;5055404;28;20440;-89
2023/01/30 02:39:21;;;;;;;3.20;2.17;;;0.10;97.30;;;;;;5055505;28;20430;-87
2023/01/30 02:41:50;;;;;;;2.67;2.20;;;0.10;97.30;;;;;;5055102;28;20410;-88
2023/01/30 02:44:19;;;;;;;4.80;3.47;;;0.10;97.30;;;;;;5072550;28;20863;-88
2023/01/30 02:46:53;;;;;;;1.83;1.60;;;0.10;97.30;;;;;;5055015;28;20417;-89
2023/01/30 02:49:39;;;;;;;2.77;2.37;;;0.20;97.30;;;;;;5054044;28;21027;-89
2023/01/30 02:52:07;;;;;;;4.10;1.97;;;0.20;97.30;;;;;;5072705;28;20416;-87
2023/01/30 02:54:32;;;;;;;1.47;1.37;;;0.20;97.30;;;;;;5053412;28;20529;-89
2023/01/30 02:56:59;;;;;;;2.40;2.10;;;0.20;97.30;;;;;;5053987;28;20486;-87
2023/01/30 02:59:38;;;;;;;3.90;3.70;;;0.30;97.30;;;;;;5054971;28;20424;-88
2023/01/30 03:02:09;;;;;;;5.00;3.73;;;0.30;97.30;;;;;;5072837;28;20409;-88
2023/01/30 03:04:53;;;;;;;3.73;1.80;;;0.30;97.30;;;;;;5054678;28;20467;-88
2023/01/30 03:07:24;;;;;;;2.03;1.93;;;0.40;97.30;;;;;;5055076;28;20472;-87
2023/01/30 03:10:22;;;;;;;1.73;1.63;;;0.40;97.30;;;;;;5054856;28;20463;-89
2023/01/30 03:12:48;;;;;;;1.93;1.67;;;0.50;97.30;;;;;;5054009;28;20455;-88
2023/01/30 03:15:27;;;;;;;15.23;5.27;;;0.50;97.30;;;;;;5073143;28;20424;-90
2023/01/30 03:17:54;;;;;;;4.70;1.67;;;0.50;97.30;;;;;;5055071;28;20175;-87
2023/01/30 03:20:20;;;;;;;2.30;1.93;;;0.60;97.30;;;;;;5072285;28;21005;-88
2023/01/30 03:22:46;;;;;;;2.37;2.17;;;0.60;97.30;;;;;;5054552;28;20556;-87
2023/01/30 03:25:20;;;;;;;6.03;3.73;;;0.60;97.30;;;;;;5054503;28;20467;-87
2023/01/30 03:27:49;;;;;;;2.53;2.33;;;0.70;97.30;;;;;;5053936;28;20427;-89
2023/01/30 03:30:14;;;;;;;1.63;1.53;;;0.70;97.30;;;;;;5053996;28;20528;-88
2023/01/30 03:32:40;;;;;;;1.60;1.50;;;0.80;97.30;;;;;;5054221;28;20559;-88
2023/01/30 03:35:05;;;;;;;2.53;2.33;;;0.80;97.30;;;;;;5045615;28;20204;-88
2023/01/30 03:37:31;;;;;;;2.47;2.27;;;0.90;97.30;;;;;;5034193;28;20202;-87
2023/01/30 03:39:57;;;;;;;5.20;3.70;;;0.90;97.30;;;;;;5052324;28;20202;-89
2023/01/30 03:42:23;;;;;;;2.57;2.37;;;1.00;97.30;;;;;;5033884;28;20275;-90
2023/01/30 03:44:48;;;;;;;2.13;1.97;;;1.00;97.30;;;;;;5033738;28;20520;-88
2023/01/30 03:47:14;;;;;;;1.97;1.83;;;1.00;97.30;;;;;;5034377;28;20188;-89
2023/01/30 03:49:39;;;;;;;3.20;2.60;;;1.10;97.30;;;;;;5033957;28;20183;-87
2023/01/30 03:52:05;;;;;;;9.70;5.50;;;1.10;97.30;;;;;;5034194;28;20674;-87
2023/01/30 03:54:30;;;;;;;3.33;2.00;;;1.20;97.30;;;;;;5034477;28;20214;-88
2023/01/30 03:56:56;;;;;;;1.87;1.83;;;1.30;97.30;;;;;;5037621;28;20233;-88
2023/01/30 03:59:21;;;;;;;3.17;2.97;;;1.30;97.30;;;;;;5055330;28;20235;-88
2023/01/30 04:01:47;;;;;;;1.93;1.80;;;1.40;97.30;;;;;;5051927;28;20186;-88
2023/01/30 04:04:12;;;;;;;3.43;1.90;;;1.40;97.30;;;;;;5057198;28;20233;-87
2023/01/30 04:06:37;;;;;;;11.73;3.07;;;1.50;97.30;;;;;;5056952;28;20179;-87
2023/01/30 04:09:03;;;;;;;12.20;3.40;;;1.50;97.30;;;;;;5057507;28;20252;-88
2023/01/30 04:11:28;;;;;;;3.13;1.80;;;1.60;97.30;;;;;;5049735;28;20594;-88
2023/01/30 04:13:54;;;;;;;5.23;3.30;;;1.70;97.30;;;;;;5073599;28;20254;-87
2023/01/30 04:16:25;;;;;;;3.50;2.23;;;1.70;97.30;;;;;;5056402;28;20554;-87
2023/01/30 04:18:51;;;;;;;1.40;1.30;;;1.70;97.30;;;;;;5056842;28;20226;-87
2023/01/30 04:21:17;;;;;;;3.90;1.97;;;1.80;97.30;;;;;;5056366;28;20424;-88
2023/01/30 04:23:42;;;;;;;3.03;2.83;;;1.80;97.30;;;;;;5056233;28;20453;-88
2023/01/30 04:26:08;;;;;;;2.60;2.20;;;1.90;97.30;;;;;;5056651;28;20916;-88
2023/01/30 04:28:34;;;;;;;3.57;2.47;;;1.90;97.30;;;;;;5074134;28;20222;-87
2023/01/30 04:31:00;;;;;;;2.43;2.23;;;1.90;97.30;;;;;;5056422;28;20425;-88
2023/01/30 04:33:26;;;;;;;2.30;2.10;;;2.00;97.30;;;;;;5056515;28;20616;-87
2023/01/30 04:35:57;;;;;;;1.97;1.87;;;2.00;97.30;;;;;;5056281;28;20189;-87
2023/01/30 04:38:23;;;;;;;5.30;1.23;;;2.00;97.30;;;;;;5055899;28;20266;-87
2023/01/30 04:40:50;;;;;;;8.27;1.83;;;2.10;97.30;;;;;;5055941;28;20431;-87
2023/01/30 04:43:16;;;;;;;1.33;1.23;;;2.10;97.30;;;;;;5055665;28;20449;-86
2023/01/30 04:45:46;;;;;;;4.60;2.70;;;2.10;97.30;;;;;;5056049;28;20410;-87
2023/01/30 04:48:12;;;;;;;5.63;3.30;;;2.10;97.30;;;;;;5074021;28;20488;-89
2023/01/30 04:50:41;;;;;;;7.87;3.37;;;2.10;97.30;;;;;;5056062;28;20438;-87
2023/01/30 04:53:07;;;;;;;4.90;3.10;;;2.20;97.30;;;;;;5055514;28;20664;-87
2023/01/30 04:55:33;;;;;;;1.67;1.57;;;2.20;97.30;;;;;;5054619;28;20426;-86
2023/01/30 04:57:58;;;;;;;3.27;3.07;;;2.30;97.30;;;;;;5073446;28;20340;-88
2023/01/30 05:00:24;;;;;;;5.17;4.50;;;2.30;97.30;;;;;;5055028;28;20183;-87
2023/01/30 05:02:50;;;;;;;2.93;2.70;;;2.40;97.30;;;;;;5055945;28;20712;-89
2023/01/30 05:05:15;;;;;;;4.20;2.40;;;2.40;97.30;;;;;;5060691;28;20653;-86
2023/01/30 05:07:41;;;;;;;1.53;1.43;;;2.50;97.30;;;;;;5059286;28;20747;-89
2023/01/30 05:10:06;;;;;;;1.43;1.33;;;2.50;97.30;;;;;;5056821;28;20278;-87
2023/01/30 05:12:32;;;;;;;4.53;1.77;;;2.60;97.30;;;;;;5075194;28;20186;-87
2023/01/30 05:14:57;;;;;;;8.53;3.20;;;2.60;97.30;;;;;;5056448;28;20861;-86
2023/01/30 05:17:23;;;;;;;1.20;1.10;;;2.70;97.30;;;;;;5055931;28;20397;-89
2023/01/30 05:19:48;;;;;;;2.50;2.00;;;2.70;97.30;;;;;;5083285;22;20241;-86
2023/01/30 05:22:14;;;;;;;4.23;2.00;;;2.70;97.30;;;;;;5054800;28;20183;-87
2023/01/30 05:24:39;;;;;;;2.20;1.80;;;2.70;97.30;;;;;;5054061;28;20625;-86
2023/01/30 05:27:05;;;;;;;2.57;2.37;;;2.70;97.30;;;;;;5054845;28;20203;-86
2023/01/30 05:29:30;;;;;;;1.60;1.50;;;2.80;97.30;;;;;;5072538;28;20563;-87
2023/01/30 05:31:56;;;;;;;5.93;2.20;;;2.70;97.30;;;;;;5055014;28;20295;-87
2023/01/30 05:34:21;;;;;;;1.80;1.70;;;2.80;97.30;;;;;;5075444;28;20175;-87
2023/01/30 05:36:47;;;;;;;3.97;2.67;;;2.80;97.30;;;;;;5076053;28;20433;-87
2023/01/30 05:39:13;;;;;;;2.43;2.23;;;2.80;97.30;;;;;;5080038;28;20186;-87
2023/01/30 05:41:38;;;;;;;1.90;1.63;;;2.80;97.30;;;;;;5090992;28;20664;-87
2023/01/30 05:44:04;;;;;;;2.23;1.70;;;2.80;97.30;;;;;;5075932;28;20217;-86
2023/01/30 05:46:29;;;;;;;3.73;2.50;;;2.90;97.30;;;;;;5054867;28;20244;-87
2023/01/30 05:48:55;;;;;;;2.50;1.30;;;2.80;97.30;;;;;;5054406;28;20572;-86
2023/01/30 05:51:22;;;;;;;6.33;4.40;;;2.90;97.30;;;;;;5055078;28;20228;-88
2023/01/30 05:53:48;;;;;;;2.50;2.30;;;2.90;97.30;;;;;;5054814;28;20190;-86
2023/01/30 05:56:14;;;;;;;1.83;1.73;;;2.90;97.30;;;;;;5053823;28;20413;-86
2023/01/30 05:58:40;;;;;;;2.40;2.20;;;2.90;97.30;;;;;;5071127;28;20607;-86
2023/01/30 06:01:11;;;;;;;9.43;2.00;;;2.90;97.30;;;;;;5057031;28;20421;-86
2023/01/30 06:03:36;;;;;;;2.00;1.90;;;2.90;97.30;;;;;;5072477;28;20198;-87
2023/01/30 06:06:03;;;;;;;1.80;1.73;;;3.00;97.30;;;;;;5072412;28;20482;-87
2023/01/30 06:08:29;;;;;;;3.00;2.43;;;2.90;97.30;;;;;;5090822;28;20170;-87
2023/01/30 06:11:02;;;;;;;2.67;2.47;;;3.00;97.30;;;;;;5072622;28;21016;-86
2023/01/30 06:13:28;;;;;;;2.67;1.80;;;3.00;97.30;;;;;;5092638;28;20579;-87
2023/01/30 06:15:53;;;;;;;2.40;2.20;;;3.00;97.30;;;;;;5074533;28;20420;-87
2023/01/30 06:18:19;;;;;;;7.50;3.00;;;3.00;97.30;;;;;;5074282;28;20189;-87
2023/01/30 06:20:49;;;;;;;3.43;1.80;;;3.00;97.30;;;;;;5073654;28;20605;-86
2023/01/30 06:23:15;;;;;;;6.50;3.33;;;3.00;97.30;;;;;;5074341;28;20229;-87
2023/01/30 06:25:47;;;;;;;1.40;1.30;;;3.00;97.30;;;;;;5074175;28;20790;-87
2023/01/30 06:28:19;;;;;;;4.00;1.67;;;3.00;97.30;;;;;;5074768;28;20412;-86
2023/01/30 06:30:47;;;;;;;2.20;2.00;;;3.00;97.30;;;;;;5074027;28;20490;-86
2023/01/30 06:33:13;;;;;;;9.90;3.40;;;3.00;97.30;;;;;;5072273;28;20907;-87
2023/01/30 06:35:40;;;;;;;3.20;2.50;;;3.00;97.30;;;;;;5061374;28;20418;-87
2023/01/30 06:38:10;;;;;;;2.47;2.20;;;3.00;97.30;;;;;;5053595;28;20421;-87
2023/01/30 06:40:38;;;;;;;2.50;2.03;;;3.00;97.30;;;;;;5054010;28;20509;-87
2023/01/30 06:43:04;;;;;;;2.70;2.50;;;3.00;97.30;;;;;;5074154;28;20456;-87
2023/01/30 06:45:29;;;;;;;1.43;1.33;;;3.00;97.30;;;;;;5072462;28;20900;-87
2023/01/30 06:47:55;;;;;;;2.30;2.10;;;3.00;97.30;;;;;;5054357;28;20426;-87
2023/01/30 06:50:26;;;;;;;9.70;3.57;;;3.00;97.30;;;;;;5054052;28;20195;-87
2023/01/30 06:52:53;;;;;;;1.60;1.50;;;3.00;97.30;;;;;;5053687;28;20417;-87
2023/01/30 06:55:21;;;;;;;2.37;2.17;;;3.00;97.30;;;;;;5053937;28;20414;-88
2023/01/30 06:57:47;;;;;;;3.23;2.23;;;3.00;97.30;;;;;;5071840;28;20413;-87
2023/01/30 07:00:18;;;;;;;7.40;1.30;;;3.00;97.30;;;;;;5070102;28;20448;-86
2023/01/30 07:02:44;;;;;;;1.67;1.57;;;3.00;97.30;;;;;;5072268;28;20210;-87
2023/01/30 07:05:10;;;;;;;0.90;0.80;;;3.10;97.30;;;;;;5073610;28;20473;-86
2023/01/30 07:07:36;;;;;;;1.77;1.73;;;3.10;97.30;;;;;;5091767;28;20960;-86
2023/01/30 07:10:02;;;;;;;1.33;1.23;;;3.10;97.30;;;;;;5073667;28;20515;-86
2023/01/30 07:12:28;;;;;;;4.60;2.63;;;3.20;97.30;;;;;;5074187;28;20178;-86
2023/01/30 07:14:54;;;;;;;2.87;2.33;;;3.20;97.30;;;;;;5073784;28;20511;-87
2023/01/30 07:17:20;;;;;;;1.20;1.10;;;3.20;97.30;;;;;;5073341;28;20200;-87
2023/01/30 07:19:46;;;;;;;2.13;1.97;;;3.20;97.30;;;;;;5073526;28;20589;-87
2023/01/30 07:22:12;;;;;;;2.20;2.03;;;3.20;97.30;;;;;;5073718;28;20438;-86
2023/01/30 07:24:44;;;;;;;6.90;2.60;;;3.20;97.30;;;;;;5091528;28;20261;-87
2023/01/30 07:27:11;;;;;;;1.73;1.63;;;3.10;97.30;;;;;;5073917;28;20412;-85
2023/01/30 07:29:37;;;;;;;1.53;1.43;;;3.10;97.30;;;;;;5091772;28;20435;-86
2023/01/30 07:32:04;;;;;;;1.63;1.60;;;3.10;97.30;;;;;;5077391;28;20420;-87
2023/01/30 07:34:30;;;;;;;1.10;1.00;;;3.10;97.30;;;;;;5073965;28;20457;-87
2023/01/30 07:36:55;;;;;;;1.67;1.63;;;3.10;97.30;;;;;;5057007;28;20575;-87
2023/01/30 07:39:21;;;;;;;7.17;2.50;;;3.10;97.30;;;;;;5057199;28;20199;-87
2023/01/30 07:41:46;;;;;;;5.73;2.77;;;3.20;97.30;;;;;;5057897;28;20235;-88
2023/01/30 07:44:13;;;;;;;4.77;2.30;;;3.20;97.30;;;;;;5057649;28;20347;-87
2023/01/30 07:46:38;;;;;;;2.73;1.20;;;3.20;97.30;;;;;;5057584;28;20448;-87
2023/01/30 07:49:05;;;;;;;1.63;1.57;;;3.30;97.30;;;;;;5058651;28;20460;-87
2023/01/30 07:51:30;;;;;;;2.13;1.97;;;3.30;97.30;;;;;;5056760;28;20532;-87
2023/01/30 07:53:57;;;;;;;4.23;1.90;;;3.40;97.30;;;;;;5056905;28;20424;-88
2023/01/30 07:56:22;;;;;;;4.23;3.53;;;3.40;97.30;;;;;;5057009;28;20179;-86
2023/01/30 07:58:48;;;;;;;4.00;1.23;;;3.50;97.30;;;;;;5056691;28;20421;-87
2023/01/30 08:01:15;;;;;;;0.93;0.83;;;3.50;97.30;;;;;;5056887;28;20619;-86
2023/01/30 08:03:42;;;;;;;1.67;1.60;;;3.60;97.30;;;;;;5074907;28;20448;-87
2023/01/30 08:06:08;;;;;;;6.30;3.77;;;3.60;97.30;;;;;;5056747;28;20501;-87
2023/01/30 08:08:34;;;;;;;1.10;1.00;;;3.60;97.30;;;;;;5056158;28;20496;-87
2023/01/30 08:11:00;;;;;;;1.23;1.00;;;3.70;97.30;;;;;;5059457;28;20445;-87
2023/01/30 08:13:25;;;;;;;1.53;1.17;;;3.70;97.30;;;;;;5076606;28;20425;-87
2023/01/30 08:15:51;;;;;;;9.23;2.07;;;3.80;97.30;;;;;;5078342;28;20178;-88
2023/01/30 08:18:16;;;;;;;1.63;1.53;;;3.80;97.30;;;;;;5076447;28;20265;-86
2023/01/30 08:20:42;;;;;;;1.30;1.20;;;3.90;97.30;;;;;;5076198;28;20297;-87
2023/01/30 08:23:07;;;;;;;1.77;1.67;;;3.90;97.30;;;;;;5076239;28;20243;-86
2023/01/30 08:25:34;;;;;;;1.60;1.50;;;3.90;97.30;;;;;;5095111;28;20163;-87
2023/01/30 08:28:00;;;;;;;1.00;0.90;;;3.90;97.30;;;;;;5094630;28;20185;-86
2023/01/30 08:30:26;;;;;;;1.60;1.50;;;3.90;97.30;;;;;;5093998;28;20489;-86
2023/01/30 08:32:52;;;;;;;1.37;1.27;;;4.00;97.30;;;;;;5076433;28;20412;-88
2023/01/30 08:35:17;;;;;;;3.70;2.07;;;4.00;97.30;;;;;;5066513;28;20414;-88
2023/01/30 08:37:43;;;;;;;1.63;1.53;;;4.00;97.30;;;;;;5055946;28;20718;-88
2023/01/30 08:40:09;;;;;;;1.53;1.43;;;4.00;97.30;;;;;;5056987;28;20187;-87
2023/01/30 08:42:35;;;;;;;1.20;1.10;;;4.00;97.30;;;;;;5054586;28;20413;-87
2023/01/30 08:45:01;;;;;;;1.60;1.50;;;4.00;97.30;;;;;;5055931;28;20417;-87
2023/01/30 08:47:27;;;;;;;1.33;1.23;;;4.00;97.30;;;;;;5055829;28;20171;-87
2023/01/30 08:49:52;;;;;;;2.50;2.30;;;4.10;97.30;;;;;;5055594;28;20426;-87
2023/01/30 08:52:19;;;;;;;1.73;1.50;;;4.10;97.30;;;;;;5055668;28;20559;-86
2023/01/30 08:54:44;;;;;;;1.20;1.10;;;4.10;97.30;;;;;;5073940;28;20213;-85
2023/01/30 08:57:10;;;;;;;1.23;1.13;;;4.20;97.30;;;;;;5055353;28;20445;-87
2023/01/30 08:59:35;;;;;;;2.77;2.10;;;4.20;97.30;;;;;;5055350;28;20701;-87
2023/01/30 09:02:01;;;;;;;1.50;1.40;;;4.30;97.30;;;;;;5073892;28;20670;-88
2023/01/30 09:04:29;;;;;;;1.43;1.33;;;4.30;97.30;;;;;;5055468;28;20696;-86
2023/01/30 09:06:55;;;;;;;1.03;1.00;;;4.30;97.30;;;;;;5055106;28;20176;-87
2023/01/30 09:09:20;;;;;;;1.53;1.43;;;4.30;97.30;;;;;;5056027;28;20955;-87
2023/01/30 09:11:47;;;;;;;1.47;1.47;;;4.30;97.30;;;;;;5073335;28;20543;-87
2023/01/30 09:14:15;;;;;;;1.53;1.43;;;4.40;97.30;;;;;;5055822;28;20183;-87
2023/01/30 09:16:40;;;;;;;1.40;1.30;;;4.40;97.30;;;;;;5055352;28;20499;-86
2023/01/30 09:19:06;;;;;;;1.20;1.10;;;4.40;97.30;;;;;;5054961;28;20525;-86
2023/01/30 09:21:31;;;;;;;2.13;1.97;;;4.50;97.30;;;;;;5054916;28;20178;-86
2023/01/30 09:23:57;;;;;;;3.33;1.10;;;4.50;97.30;;;;;;5055367;28;20235;-88
2023/01/30 09:26:22;;;;;;;0.97;0.87;;;4.70;97.30;;;;;;5054976;28;20175;-88
2023/01/30 09:28:48;;;;;;;1.77;1.63;;;4.90;97.30;;;;;;5055002;28;20175;-87
2023/01/30 09:31:13;;;;;;;1.60;1.50;;;5.00;97.30;;;;;;5055044;28;20205;-87
2023/01/30 09:33:39;;;;;;;1.10;1.00;;;5.00;97.30;;;;;;5054505;28;20199;-85
2023/01/30 09:36:05;;;;;;;2.30;1.90;;;4.90;97.30;;;;;;5069830;28;20589;-86
2023/01/30 09:38:30;;;;;;;1.20;1.10;;;4.80;97.30;;;;;;5074805;28;20178;-88
2023/01/30 09:41:03;;;;;;;5.30;3.07;;;4.80;97.30;;;;;;5074666;28;20907;-87
2023/01/30 09:43:41;;;;;;;1.57;1.33;;;4.80;97.30;;;;;;5074453;28;20256;-87
2023/01/30 09:46:20;;;;;;;6.90;1.93;;;4.70;97.30;;;;;;5075054;28;20591;-86
2023/01/30 09:49:03;;;;;;;1.27;1.17;;;4.70;97.30;;;;;;5074226;28;20507;-85
2023/01/30 09:51:55;;;;;;;3.60;3.40;;;4.70;97.30;;;;;;5074474;28;20423;-86
2023/01/30 09:54:36;;;;;;;2.67;2.47;;;4.70;97.30;;;;;;5074586;28;20813;-87
2023/01/30 09:57:20;;;;;;;1.60;1.50;;;4.70;97.30;;;;;;5074660;28;20459;-87
2023/01/30 09:59:55;;;;;;;1.70;1.47;;;4.70;97.30;;;;;;5074824;28;20443;-87
2023/01/30 10:02:40;;;;;;;1.10;1.03;;;4.70;97.30;;;;;;5074865;28;20906;-87
2023/01/30 10:05:06;;;;;;;1.57;1.07;;;4.70;97.30;;;;;;5092508;28;20432;-84
2023/01/30 10:08:10;;;;;;;1.00;0.90;;;4.60;97.30;;;;;;5074509;28;20736;-87
2023/01/30 10:10:47;;;;;;;3.67;2.70;;;4.60;97.30;;;;;;5033709;28;20436;-87
2023/01/30 10:13:33;;;;;;;1.10;1.00;;;4.60;97.30;;;;;;5073711;28;20412;-86
2023/01/30 10:16:35;;;;;;;1.57;1.53;;;4.60;97.30;;;;;;5074736;28;20785;-86
2023/01/30 10:19:25;;;;;;;1.20;1.10;;;4.60;97.30;;;;;;5092199;28;20448;-86
2023/01/30 10:22:07;;;;;;;1.93;1.67;;;4.60;97.30;;;;;;5073933;28;20435;-86
2023/01/30 10:24:41;;;;;;;1.13;1.03;;;4.60;97.30;;;;;;5073995;28;20551;-85
2023/01/30 10:27:17;;;;;;;1.17;1.07;;;4.60;97.30;;;;;;5073705;28;20790;-86
2023/01/30 10:29:52;;;;;;;1.00;1.00;;;4.50;97.30;;;;;;5073897;28;20432;-86
2023/01/30 10:32:31;;;;;;;3.77;2.70;;;4.40;97.30;;;;;;5092052;28;20432;-87
2023/01/30 10:35:16;;;;;;;1.20;1.10;;;4.40;97.30;;;;;;5073577;28;20416;-87
2023/01/30 10:37:44;;;;;;;0.97;0.87;;;4.40;97.30;;;;;;5074283;28;20431;-86
2023/01/30 10:40:32;;;;;;;1.13;1.03;;;4.40;97.30;;;;;;5073950;28;20464;-88
2023/01/30 10:43:57;;;;;;;1.33;1.20;;;4.40;97.30;;;;;;5074241;28;20472;-85
2023/01/30 10:47:11;;;;;;;2.50;0.90;;;4.40;97.30;;;;;;5010049;28;20416;-86
2023/01/30 10:53:32;;;;;;;1.20;1.10;;;4.40;97.30;;;;;;5078117;28;20434;-86
2023/01/30 10:56:31;;;;;;;0.80;0.70;;;4.40;97.30;;;;;;5013724;28;20423;-86
2023/01/30 10:59:42;;;;;;;1.70;1.60;;;4.40;97.30;;;;;;5022868;28;20424;-87
2023/01/30 11:02:42;;;;;;;1.20;1.10;;;4.30;97.30;;;;;;5019265;28;20474;-87
2023/01/30 11:05:29;;;;;;;2.80;1.77;;;4.30;97.30;;;;;;5075193;28;20486;-87
2023/01/30 11:08:02;;;;;;;1.30;1.20;;;4.40;97.30;;;;;;5078536;28;20417;-86
2023/01/30 11:10:52;;;;;;;2.93;2.50;;;4.40;97.30;;;;;;5078298;28;20436;-87
2023/01/30 11:13:33;;;;;;;1.67;1.57;;;4.40;97.30;;;;;;5078736;28;20412;-86
2023/01/30 11:19:33;;;;;;;0.97;0.87;;;4.60;97.30;;;;;;5100067;22;20462;-88
2023/01/30 11:22:05;;;;;;;1.30;0.97;;;4.80;97.30;;;;;;5078349;28;20427;-85
2023/01/30 11:24:44;;;;;;;1.27;1.17;;;4.90;97.30;;;;;;5079676;28;20826;-86
2023/01/30 11:27:22;;;;;;;1.53;1.43;;;4.90;97.30;;;;;;5079165;28;20416;-89
2023/01/30 11:29:51;;;;;;;1.00;0.90;;;4.90;97.30;;;;;;5078978;28;20439;-87
2023/01/30 11:32:28;;;;;;;1.33;1.13;;;4.90;97.30;;;;;;5097230;28;20422;-86
2023/01/30 11:35:13;;;;;;;1.80;1.73;;;4.80;97.30;;;;;;5078530;28;20432;-87
2023/01/30 11:37:42;;;;;;;1.60;1.50;;;4.90;97.30;;;;;;5079214;28;20422;-88
2023/01/30 11:40:17;;;;;;;1.07;0.97;;;5.00;97.30;;;;;;5078797;28;20894;-87
2023/01/30 11:42:48;;;;;;;1.00;0.90;;;5.10;97.30;;;;;;5078287;28;20412;-90
2023/01/30 11:45:16;;;;;;;1.30;1.20;;;5.30;97.30;;;;;;5078932;28;20421;-87
2023/01/30 11:47:57;;;;;;;1.20;1.10;;;5.30;97.30;;;;;;5078520;28;20466;-88
2023/01/30 11:50:30;;;;;;;1.13;1.03;;;5.20;97.30;;;;;;5078507;28;20435;-90
2023/01/30 11:53:02;;;;;;;1.30;1.20;;;5.10;97.30;;;;;;5078665;28;20416;-86
2023/01/30 11:55:32;;;;;;;3.00;1.07;;;5.10;97.30;;;;;;5078549;28;20448;-87
2023/01/30 11:57:58;;;;;;;1.20;1.10;;;5.10;97.30;;;;;;5078846;28;20413;-86
2023/01/30 12:00:39;;;;;;;2.00;1.90;;;5.10;97.30;;;;;;5078328;28;20469;-87
2023/01/30 12:03:09;;;;;;;3.53;1.67;;;5.10;97.30;;;;;;5078169;28;20450;-87
2023/01/30 12:05:41;;;;;;;1.27;1.20;;;5.10;97.30;;;;;;5077892;28;20416;-89
2023/01/30 12:08:22;;;;;;;1.37;1.27;;;5.10;97.30;;;;;;5074362;28;20474;-87
2023/01/30 12:11:00;;;;;;;1.30;1.20;;;5.10;97.30;;;;;;5057776;28;20982;-88
2023/01/30 12:13:40;;;;;;;3.10;2.97;;;5.10;97.30;;;;;;5061503;28;20425;-87
2023/01/30 12:16:22;;;;;;;1.00;0.90;;;5.30;97.30;;;;;;5071794;28;20417;-88
2023/01/30 12:19:24;;;;;;;1.33;1.23;;;5.40;97.30;;;;;;5062334;28;20428;-87
2023/01/30 12:22:20;;;;;;;4.20;1.20;;;5.40;97.30;;;;;;5058697;28;20437;-87
2023/01/30 12:25:17;;;;;;;1.13;1.03;;;5.60;97.30;;;;;;5075253;28;20445;-86
2023/01/30 12:28:17;;;;;;;1.33;1.23;;;5.90;97.30;;;;;;5046632;28;20559;-87
2023/01/30 12:31:07;;;;;;;2.03;1.27;;;6.10;97.30;;;;;;5005466;28;20528;-88
2023/01/30 12:33:34;;;;;;;1.30;1.20;;;6.30;97.30;;;;;;5049832;28;20409;-87
2023/01/30 12:36:08;;;;;;;1.10;1.00;;;6.40;97.30;;;;;;5057394;28;20872;-86
2023/01/30 12:39:00;;;;;;;1.13;1.03;;;6.50;97.30;;;;;;5056949;28;20433;-87
2023/01/30 12:41:35;;;;;;;1.90;1.33;;;6.40;97.30;;;;;;5057429;28;20438;-90
2023/01/30 12:44:13;;;;;;;2.33;1.60;;;6.50;97.30;;;;;;5056593;28;20457;-88
2023/01/30 12:47:05;;;;;;;1.40;1.27;;;6.60;97.30;;;;;;5057532;28;20447;-89
2023/01/30 12:49:50;;;;;;;1.10;1.00;;;6.40;97.30;;;;;;5056756;28;20438;-88
2023/01/30 12:52:28;;;;;;;1.17;1.10;;;6.50;97.30;;;;;;5046441;28;20896;-87
2023/01/30 12:55:23;;;;;;;1.33;1.23;;;6.50;97.30;;;;;;5074799;28;20907;-87
2023/01/30 12:58:07;;;;;;;1.00;0.90;;;6.30;97.30;;;;;;5054730;28;20421;-86
2023/01/30 13:01:03;;;;;;;2.77;1.73;;;6.00;97.30;;;;;;5056418;28;20438;-87
2023/01/30 13:03:35;;;;;;;1.30;1.20;;;5.90;97.30;;;;;;5056540;28;20451;-88
2023/01/30 13:06:18;;;;;;;1.83;1.73;;;5.80;97.30;;;;;;5056335;28;20912;-87
2023/01/30 13:09:05;;;;;;;1.20;1.10;;;5.80;97.30;;;;;;5074323;28;20488;-88
2023/01/30 13:11:59;;;;;;;1.20;1.10;;;5.70;97.30;;;;;;5056063;28;20414;-87
2023/01/30 13:14:42;;;;;;;1.40;1.30;;;5.70;97.30;;;;;;5056706;28;20936;-87
2023/01/30 13:17:40;;;;;;;1.00;0.90;;;5.70;97.30;;;;;;5056646;28;20932;-86
2023/01/30 13:20:15;;;;;;;2.33;1.60;;;5.90;97.30;;;;;;5052911;28;20498;-88
2023/01/30 13:22:56;;;;;;;1.10;1.10;;;5.90;97.30;;;;;;5053052;28;20954;-87
2023/01/30 13:25:25;;;;;;;0.90;0.80;;;5.80;97.30;;;;;;5052884;28;20476;-88
2023/01/30 13:27:56;;;;;;;3.07;1.40;;;5.90;97.30;;;;;;5052025;28;20421;-86
2023/01/30 13:30:24;;;;;;;1.47;1.37;;;6.10;97.30;;;;;;5052757;28;20483;-88